createdAt,value
2022-08-12T00:02:44.933Z,99.90
2022-08-12T00:05:31.556Z,99.90
2022-08-12T00:08:17.175Z,99.90
2022-08-12T00:11:14.825Z,99.90
2022-08-12T00:14:00.811Z,99.90
2022-08-12T00:16:47.258Z,99.90
2022-08-12T00:19:33.104Z,99.90
2022-08-12T00:22:19.549Z,99.90
2022-08-12T00:25:05.428Z,99.90
2022-08-12T00:27:50.951Z,99.90
2022-08-12T00:33:22.599Z,99.90
2022-08-12T00:36:12.673Z,99.90
2022-08-12T00:39:17.428Z,99.90
2022-08-12T00:42:04.342Z,99.90
2022-08-12T00:44:31.553Z,99.90
2022-08-12T00:47:00.523Z,99.90
2022-08-12T00:49:28.890Z,99.90
2022-08-12T00:52:06.438Z,99.90
2022-08-12T00:54:34.554Z,99.90
2022-08-12T00:57:04.686Z,99.90
2022-08-12T00:59:32.721Z,99.90
2022-08-12T01:02:12.297Z,99.90
2022-08-12T01:04:59.485Z,99.90
2022-08-12T01:07:45.939Z,99.90
2022-08-12T01:10:32.906Z,99.90
2022-08-12T01:13:18.878Z,99.90
2022-08-12T01:15:49.577Z,99.90
2022-08-12T01:18:17.533Z,99.90
2022-08-12T01:23:24.466Z,99.90
2022-08-12T01:25:56.012Z,99.90
2022-08-12T01:28:24.799Z,99.90
2022-08-12T01:30:52.078Z,99.90
2022-08-12T01:33:21.413Z,99.90
2022-08-12T01:36:07.914Z,99.90
2022-08-12T01:38:36.750Z,99.90
2022-08-12T01:41:04.779Z,99.90
2022-08-12T01:43:32.509Z,99.90
2022-08-12T01:46:22.777Z,99.90
2022-08-12T01:49:08.561Z,99.90
2022-08-12T01:52:20.289Z,99.90
2022-08-12T01:54:29.047Z,99.90
2022-08-12T01:56:58.765Z,99.90
2022-08-12T01:59:47.350Z,99.90
2022-08-12T02:02:19.401Z,99.90
2022-08-12T02:05:20.737Z,99.90
2022-08-12T02:08:09.894Z,99.90
2022-08-12T02:11:13.954Z,99.90
2022-08-12T02:13:56.246Z,99.90
2022-08-12T02:16:39.362Z,99.90
2022-08-12T02:19:22.980Z,99.90
2022-08-12T02:21:56.925Z,99.90
2022-08-12T02:24:28.493Z,99.90
2022-08-12T02:26:56.621Z,99.90
2022-08-12T02:29:24.084Z,99.90
2022-08-12T02:31:52.785Z,99.90
2022-08-12T02:34:20.057Z,99.90
2022-08-12T02:36:47.998Z,99.90
2022-08-12T02:39:16.536Z,99.90
2022-08-12T02:41:46.170Z,99.90
2022-08-12T02:46:44.300Z,99.90
2022-08-12T02:49:15.911Z,99.90
2022-08-12T02:51:46.803Z,99.90
2022-08-12T02:54:13.872Z,99.90
2022-08-12T02:56:41.919Z,99.90
2022-08-12T02:59:19.845Z,99.90
2022-08-12T03:01:48.559Z,99.90
2022-08-12T03:04:43.444Z,99.90
2022-08-12T03:07:18.448Z,99.90
2022-08-12T03:10:05.583Z,99.90
2022-08-12T03:12:36.645Z,99.90
2022-08-12T03:15:16.412Z,99.90
2022-08-12T03:18:25.880Z,99.90
2022-08-12T03:20:41.100Z,99.90
2022-08-12T03:23:19.445Z,99.90
2022-08-12T03:25:59.055Z,99.90
2022-08-12T03:31:12.656Z,99.90
2022-08-12T03:33:40.244Z,99.90
2022-08-12T03:36:08.609Z,99.90
2022-08-12T03:38:38.449Z,99.90
2022-08-12T03:41:25.399Z,99.90
2022-08-12T03:44:15.303Z,99.90
2022-08-12T03:47:01.214Z,99.90
2022-08-12T03:49:46.684Z,99.90
2022-08-12T03:52:32.404Z,99.90
2022-08-12T03:55:17.917Z,99.90
2022-08-12T03:58:03.401Z,99.90
2022-08-12T04:00:30.756Z,99.90
2022-08-12T04:03:23.690Z,99.90
2022-08-12T04:05:54.367Z,99.90
2022-08-12T04:08:27.152Z,99.90
2022-08-12T04:11:13.529Z,99.90
2022-08-12T04:13:41.190Z,99.90
2022-08-12T04:16:11.224Z,99.90
2022-08-12T04:18:38.905Z,99.90
2022-08-12T04:21:10.748Z,99.90
2022-08-12T04:23:38.714Z,99.90
2022-08-12T04:26:06.441Z,99.90
2022-08-12T04:28:34.059Z,99.90
2022-08-12T04:31:01.431Z,99.90
2022-08-12T04:33:28.761Z,99.90
2022-08-12T04:35:56.423Z,99.90
2022-08-12T04:38:23.748Z,99.90
2022-08-12T04:40:51.972Z,99.90
2022-08-12T04:44:01.538Z,99.90
2022-08-12T04:46:06.258Z,99.90
2022-08-12T04:48:33.207Z,99.90
2022-08-12T04:51:00.423Z,99.90
2022-08-12T04:53:28.136Z,99.90
2022-08-12T04:55:55.257Z,99.90
2022-08-12T04:58:30.013Z,99.90
2022-08-12T05:00:57.295Z,99.90
2022-08-12T05:03:27.339Z,99.90
2022-08-12T05:05:56.862Z,99.90
2022-08-12T05:08:24.539Z,99.90
2022-08-12T05:10:51.505Z,99.90
2022-08-12T05:13:51.435Z,99.90
2022-08-12T05:16:18.383Z,99.90
2022-08-12T05:18:54.489Z,99.90
2022-08-12T05:21:23.903Z,99.90
2022-08-12T05:23:50.930Z,99.90
2022-08-12T05:26:17.933Z,99.90
2022-08-12T05:28:46.409Z,99.90
2022-08-12T05:31:13.428Z,99.90
2022-08-12T05:33:41.175Z,99.90
2022-08-12T05:36:09.087Z,99.90
2022-08-12T05:38:55.037Z,99.90
2022-08-12T05:41:22.517Z,99.90
2022-08-12T05:44:00.890Z,99.90
2022-08-12T05:46:28.932Z,99.90
2022-08-12T05:48:56.693Z,99.90
2022-08-12T05:51:32.290Z,99.90
2022-08-12T08:02:26.773Z,65.80
2022-08-12T08:04:57.315Z,66.40
2022-08-12T08:07:25.883Z,66.10
2022-08-12T08:09:58.399Z,65.60
2022-08-12T08:12:45.011Z,65.10
2022-08-12T08:15:12.200Z,64.10
2022-08-12T08:17:39.216Z,62.50
2022-08-12T08:20:08.146Z,61.10
2022-08-12T08:22:41.550Z,61.50
2022-08-12T08:25:34.861Z,63.60
2022-08-12T08:27:59.211Z,63.30
2022-08-12T08:30:26.824Z,59.10
2022-08-12T08:32:53.984Z,55.90
2022-08-12T08:40:38.245Z,53.90
2022-08-12T08:43:05.880Z,55.70
2022-08-12T08:45:33.094Z,56.20
2022-08-12T08:48:00.787Z,57.00
2022-08-12T08:50:27.884Z,58.40
2022-08-12T08:52:55.118Z,59.50
2022-08-12T08:55:30.057Z,60.10
2022-08-12T08:58:04.628Z,59.40
2022-08-12T09:00:31.699Z,59.80
2022-08-12T09:02:59.946Z,59.80
2022-08-12T09:05:28.104Z,58.10
2022-08-12T09:08:12.152Z,57.10
2022-08-12T09:10:45.227Z,56.30
2022-08-12T09:13:29.265Z,55.40
2022-08-12T09:16:20.317Z,55.30
2022-08-12T09:18:52.244Z,54.60
2022-08-12T09:21:20.480Z,53.10
2022-08-12T09:23:59.129Z,51.90
2022-08-12T09:26:38.174Z,49.10
2022-08-12T09:29:15.227Z,48.50
2022-08-12T09:32:06.529Z,47.90
2022-08-12T09:34:36.016Z,47.70
2022-08-12T09:37:19.887Z,47.80
2022-08-12T09:40:06.016Z,47.50
2022-08-12T09:46:11.530Z,46.30
2022-08-12T09:48:34.959Z,45.50
2022-08-12T09:51:04.361Z,46.00
2022-08-12T09:53:38.455Z,45.20
2022-08-12T09:57:01.039Z,43.90
2022-08-12T09:59:01.808Z,42.80
2022-08-12T10:01:35.323Z,41.60
2022-08-12T10:04:19.657Z,41.10
2022-08-12T10:06:48.717Z,41.20
2022-08-12T10:09:28.882Z,40.80
2022-08-12T10:12:31.564Z,40.90
2022-08-12T10:15:01.795Z,40.80
2022-08-12T10:17:29.195Z,40.80
2022-08-12T10:19:59.371Z,40.30
2022-08-12T10:22:40.068Z,39.90
2022-08-12T10:26:34.730Z,40.10
2022-08-12T10:28:41.635Z,40.10
2022-08-12T10:31:28.722Z,40.10
2022-08-12T10:34:24.012Z,39.70
2022-08-12T10:36:58.821Z,40.00
2022-08-12T10:40:01.198Z,40.70
2022-08-12T10:42:46.303Z,40.80
2022-08-12T10:45:18.023Z,40.40
2022-08-12T10:48:15.939Z,40.00
2022-08-12T10:51:01.254Z,40.90
2022-08-12T10:53:43.954Z,41.60
2022-08-12T10:56:17.058Z,39.70
2022-08-12T10:58:47.254Z,39.20
2022-08-12T11:01:50.500Z,38.20
2022-08-12T11:04:25.127Z,38.20
2022-08-12T11:07:05.238Z,37.20
2022-08-12T11:09:59.634Z,37.40
2022-08-12T11:12:54.740Z,36.90
2022-08-12T11:15:21.099Z,36.90
2022-08-12T11:17:53.333Z,38.70
2022-08-12T11:20:30.746Z,38.40
2022-08-12T11:22:59.804Z,37.30
2022-08-12T11:25:53.715Z,37.00
2022-08-12T11:28:18.031Z,37.00
2022-08-12T11:31:00.590Z,36.20
2022-08-12T11:34:06.372Z,35.60
2022-08-12T11:36:14.881Z,35.60
2022-08-12T11:38:42.012Z,40.10
2022-08-12T11:41:10.137Z,39.80
2022-08-12T11:43:50.326Z,44.30
2022-08-12T11:46:24.142Z,39.10
2022-08-12T11:48:52.539Z,38.60
2022-08-12T11:51:20.920Z,38.40
2022-08-12T11:53:58.197Z,37.50
2022-08-12T11:56:38.578Z,37.50
2022-08-12T12:02:01.387Z,37.70
2022-08-12T12:04:31.619Z,37.20
2022-08-12T12:07:07.658Z,36.30
2022-08-12T12:09:50.693Z,36.10
2022-08-12T12:12:22.328Z,36.20
2022-08-12T12:14:54.587Z,37.70
2022-08-12T12:17:23.820Z,38.30
2022-08-12T12:19:51.295Z,38.20
2022-08-12T12:22:23.444Z,38.20
2022-08-12T12:24:59.377Z,37.80
2022-08-12T12:28:05.015Z,38.80
2022-08-12T12:30:34.586Z,39.90
2022-08-12T12:33:01.688Z,40.80
2022-08-12T12:36:05.838Z,40.40
2022-08-12T12:38:17.447Z,39.80
2022-08-12T12:40:46.008Z,39.60
2022-08-12T12:43:17.770Z,39.40
2022-08-12T12:46:04.854Z,40.00
2022-08-12T12:48:31.846Z,40.10
2022-08-12T12:51:48.202Z,41.50
2022-08-12T12:54:07.984Z,42.30
2022-08-12T12:56:40.617Z,43.60
2022-08-12T12:59:55.470Z,44.70
2022-08-12T13:01:55.536Z,46.00
2022-08-12T13:04:22.690Z,45.90
2022-08-12T13:06:52.329Z,46.50
2022-08-12T13:09:22.263Z,46.40
2022-08-12T13:11:53.480Z,46.90
2022-08-12T13:14:29.267Z,47.30
2022-08-12T13:17:02.865Z,47.70
2022-08-12T13:19:38.612Z,48.50
2022-08-12T13:22:19.019Z,48.80
2022-08-12T13:24:55.747Z,49.10
2022-08-12T13:27:35.391Z,49.10
2022-08-12T13:30:10.774Z,49.40
2022-08-12T13:32:40.470Z,49.50
2022-08-12T13:35:19.336Z,49.50
2022-08-12T13:37:55.282Z,49.60
2022-08-12T13:40:27.331Z,49.60
2022-08-12T13:42:58.138Z,49.80
2022-08-12T13:45:29.376Z,49.60
2022-08-12T13:47:57.738Z,49.90
2022-08-12T13:50:32.880Z,50.10
2022-08-12T13:53:00.474Z,50.10
2022-08-12T13:55:33.358Z,50.30
2022-08-12T13:58:12.567Z,50.20
2022-08-12T14:00:42.961Z,49.90
2022-08-12T14:03:14.654Z,49.60
2022-08-12T14:05:42.487Z,50.20
2022-08-12T14:08:11.795Z,49.30
2022-08-12T14:10:50.916Z,49.40
2022-08-12T14:14:06.168Z,49.70
2022-08-12T14:16:14.432Z,49.40
2022-08-12T14:18:44.829Z,49.50
2022-08-12T14:21:18.153Z,50.00
2022-08-12T14:24:04.705Z,50.10
2022-08-12T14:26:36.441Z,50.10
2022-08-12T14:29:06.072Z,50.10
2022-08-12T14:31:33.151Z,50.10
2022-08-12T14:34:00.239Z,50.30
2022-08-12T14:36:32.396Z,50.30
2022-08-12T14:39:00.323Z,49.90
2022-08-12T14:41:37.217Z,49.80
2022-08-12T14:44:57.833Z,49.80
2022-08-12T14:47:08.097Z,49.70
2022-08-12T14:50:37.190Z,50.00
2022-08-12T14:53:11.651Z,50.30
2022-08-12T14:57:59.976Z,49.50
2022-08-12T15:00:50.634Z,49.50
2022-08-12T15:03:23.368Z,49.70
2022-08-12T15:06:05.975Z,49.40
2022-08-12T15:08:41.575Z,49.00
2022-08-12T15:11:17.249Z,49.60
2022-08-12T15:13:49.635Z,49.10
2022-08-12T15:16:18.789Z,48.90
2022-08-12T15:18:55.030Z,49.00
2022-08-12T15:22:37.199Z,49.10
2022-08-12T15:24:13.300Z,49.20
2022-08-12T15:26:41.738Z,49.50
2022-08-12T15:29:10.418Z,49.50
2022-08-12T15:32:00.530Z,49.40
2022-08-12T15:34:30.870Z,49.70
2022-08-12T15:36:57.966Z,49.00
2022-08-12T15:39:27.609Z,48.20
2022-08-12T15:41:55.290Z,48.30
2022-08-12T15:44:38.423Z,48.50
2022-08-12T15:49:54.691Z,48.90
2022-08-12T15:52:27.416Z,49.40
2022-08-12T15:54:58.395Z,49.10
2022-08-12T15:57:27.177Z,49.30
2022-08-12T16:00:06.499Z,49.30
2022-08-12T16:02:49.475Z,49.00
2022-08-12T16:06:16.820Z,49.10
2022-08-12T16:08:13.267Z,49.00
2022-08-12T16:10:44.921Z,48.90
2022-08-12T16:13:13.090Z,48.70
2022-08-12T16:15:42.122Z,48.70
2022-08-12T16:18:19.486Z,48.50
2022-08-12T16:20:47.641Z,48.70
2022-08-12T16:23:36.114Z,48.30
2022-08-12T16:26:15.394Z,48.00
2022-08-12T16:28:47.829Z,48.10
2022-08-12T16:31:23.471Z,48.20
2022-08-12T16:33:56.751Z,48.60
2022-08-12T16:36:27.069Z,48.80
2022-08-12T16:38:54.224Z,49.20
2022-08-12T16:41:22.434Z,49.10
2022-08-12T16:43:50.613Z,48.80
2022-08-12T16:46:32.191Z,48.60
2022-08-12T16:49:08.518Z,49.10
2022-08-12T16:51:41.954Z,49.10
2022-08-12T16:54:16.264Z,49.10
2022-08-12T16:56:54.750Z,49.00
2022-08-12T16:59:53.495Z,49.40
2022-08-12T17:02:31.902Z,49.30
2022-08-12T17:05:03.792Z,49.30
2022-08-12T17:07:36.688Z,49.10
2022-08-12T17:10:08.003Z,49.30
2022-08-12T17:12:37.615Z,49.50
2022-08-12T17:20:46.605Z,49.80
2022-08-12T17:23:15.255Z,50.50
2022-08-12T17:25:45.220Z,50.80
2022-08-12T17:28:16.648Z,50.90
2022-08-12T17:30:44.594Z,51.10
2022-08-12T17:33:24.591Z,51.20
2022-08-12T17:35:52.163Z,51.20
2022-08-12T17:38:21.178Z,51.30
2022-08-12T17:40:48.634Z,51.40
2022-08-12T17:43:56.325Z,51.70
2022-08-12T17:46:04.341Z,51.70
2022-08-12T17:48:34.684Z,51.90
2022-08-12T17:51:15.571Z,51.90
2022-08-12T17:54:06.380Z,51.90
2022-08-12T17:56:32.783Z,52.30
2022-08-12T17:59:01.135Z,52.50
2022-08-12T18:01:29.348Z,53.00
2022-08-12T18:04:20.346Z,53.30
2022-08-12T18:06:50.427Z,53.70
2022-08-12T18:09:17.937Z,54.00
2022-08-12T18:12:07.889Z,54.30
2022-08-12T18:14:38.040Z,54.70
2022-08-12T18:17:08.914Z,54.60
2022-08-12T18:20:04.732Z,54.50
2022-08-12T18:22:29.053Z,54.80
2022-08-12T18:25:03.744Z,55.10
2022-08-12T18:27:43.771Z,55.50
2022-08-12T18:30:16.394Z,55.50
2022-08-12T18:32:58.916Z,56.00
2022-08-12T18:35:47.185Z,56.00
2022-08-12T18:38:19.788Z,55.30
2022-08-12T18:41:05.938Z,55.60
2022-08-12T18:43:58.775Z,55.30
2022-08-12T18:46:40.828Z,55.60
2022-08-12T18:49:17.183Z,55.60
2022-08-12T18:51:55.133Z,55.90
2022-08-12T18:57:00.814Z,56.10
2022-08-12T19:00:00.783Z,57.00
2022-08-12T19:02:21.876Z,57.10
2022-08-12T19:04:52.957Z,57.40
2022-08-12T19:07:22.364Z,57.60
2022-08-12T19:09:58.626Z,58.10
2022-08-12T19:12:55.672Z,58.10
2022-08-12T19:15:30.024Z,58.50
2022-08-12T19:18:03.062Z,58.80
2022-08-12T19:20:32.975Z,59.00
2022-08-12T19:23:07.316Z,59.60
2022-08-12T19:26:01.686Z,60.00
2022-08-12T19:28:30.336Z,60.20
2022-08-12T19:31:58.072Z,60.30
2022-08-12T19:35:07.011Z,60.90
2022-08-12T19:37:22.937Z,61.60
2022-08-12T19:40:07.713Z,61.50
2022-08-12T19:42:40.064Z,61.80
2022-08-12T19:45:12.221Z,62.30
2022-08-12T19:47:40.750Z,62.70
2022-08-12T19:50:11.109Z,63.30
2022-08-12T19:52:40.754Z,63.90
2022-08-12T19:55:11.537Z,64.90
2022-08-12T19:58:01.851Z,65.60
2022-08-12T20:00:31.246Z,66.00
2022-08-12T20:03:00.789Z,66.60
2022-08-12T20:06:06.739Z,66.70
2022-08-12T20:08:26.435Z,67.00
2022-08-12T20:12:13.705Z,67.20
2022-08-12T20:16:51.971Z,67.30
2022-08-12T20:19:16.546Z,68.30
2022-08-12T20:21:44.543Z,68.50
2022-08-12T20:24:14.197Z,69.00
2022-08-12T20:26:42.253Z,69.50
2022-08-12T20:29:12.423Z,70.00
2022-08-12T20:31:40.121Z,69.60
2022-08-12T20:34:08.663Z,70.10
2022-08-12T20:36:42.972Z,70.40
2022-08-12T20:39:34.324Z,70.80
2022-08-12T20:42:02.422Z,71.20
2022-08-12T20:44:32.316Z,71.80
2022-08-12T20:47:17.889Z,72.80
2022-08-12T20:49:46.519Z,73.50
2022-08-12T20:52:25.544Z,74.50
2022-08-12T20:54:58.006Z,75.20
2022-08-12T20:57:25.314Z,75.70
2022-08-12T21:00:08.984Z,76.40
2022-08-12T21:02:38.767Z,77.40
2022-08-12T21:05:26.382Z,77.70
2022-08-12T21:08:13.851Z,78.20
2022-08-12T21:10:42.109Z,78.60
2022-08-12T21:13:20.042Z,78.90
2022-08-12T21:15:54.522Z,79.10
2022-08-12T21:18:29.049Z,79.30
2022-08-12T21:20:59.072Z,79.60
2022-08-12T21:23:31.130Z,79.60
2022-08-12T21:26:09.615Z,79.50
2022-08-12T21:28:56.853Z,79.70
2022-08-12T21:32:36.527Z,79.90
2022-08-12T21:36:48.787Z,79.80
2022-08-12T21:39:21.859Z,80.90
2022-08-12T21:41:52.062Z,81.30
2022-08-12T21:44:24.790Z,81.70
2022-08-12T21:47:19.616Z,82.00
2022-08-12T21:49:55.312Z,81.80
2022-08-12T21:52:28.213Z,82.20
2022-08-12T21:55:02.587Z,82.90
2022-08-12T21:57:36.510Z,83.30
2022-08-12T22:00:19.534Z,83.90
2022-08-12T22:03:05.037Z,84.60
2022-08-12T22:05:50.835Z,85.10
2022-08-12T22:08:25.385Z,85.60
2022-08-12T22:10:52.732Z,85.90
2022-08-12T22:14:07.012Z,86.40
2022-08-12T22:16:16.934Z,86.90
2022-08-12T22:18:50.524Z,87.50
2022-08-12T22:21:22.022Z,87.90
2022-08-12T22:23:51.755Z,88.70
2022-08-12T22:26:37.872Z,89.20
2022-08-12T22:31:55.257Z,90.00
2022-08-12T22:34:33.325Z,90.60
2022-08-12T22:37:00.629Z,90.80
2022-08-12T22:39:27.748Z,91.00
2022-08-12T22:42:13.324Z,91.20
2022-08-12T22:45:05.423Z,91.40
2022-08-12T22:47:53.608Z,91.50
2022-08-12T22:50:27.636Z,91.70
2022-08-12T22:53:15.094Z,91.90
2022-08-12T22:56:06.052Z,92.20
2022-08-12T23:01:02.005Z,92.60
2022-08-12T23:03:48.930Z,93.00
2022-08-12T23:06:19.626Z,93.20
2022-08-12T23:08:48.027Z,93.40
2022-08-12T23:11:16.275Z,93.70
2022-08-12T23:14:04.227Z,93.80
2022-08-12T23:16:34.159Z,94.00
2022-08-12T23:19:10.691Z,94.20
2022-08-12T23:22:05.888Z,94.30
2022-08-12T23:24:38.777Z,94.20
2022-08-12T23:27:51.045Z,94.30
2022-08-12T23:30:18.831Z,94.40
2022-08-12T23:35:22.651Z,94.50
2022-08-12T23:37:53.574Z,94.90
2022-08-12T23:40:22.383Z,95.10
2022-08-12T23:42:51.173Z,95.10
2022-08-12T23:45:30.809Z,95.10
2022-08-12T23:47:59.948Z,95.20
2022-08-12T23:50:34.303Z,95.20
2022-08-12T23:53:05.634Z,95.40
2022-08-12T23:55:40.973Z,95.40
2022-08-12T23:58:18.276Z,95.50
